Rakitna Rakitna

Učna pot


Verjetnost toče več informacij Hail probability


Požarna ogroženost več informacij Fire risk


Moja kamera več informacij My webcam


Rakitna DRSI več informacij Rakitna DRSI


Obiščite še:

Template documentacija
in prenos

in še drugo stran



Posebna pozornost v zvezi z vremenskimi dogajanji ni potrebna.    Posebna pozornost v zvezi z vremenskimi dogajanji ni potrebna.

METAR v bližini

   
LJLJ - Ljubljana
Posodobljeno: 15-08-2018 22:30
nekaj oblakov  
nekaj oblakov  
   Veter: različen 3.7 km/h
Veter: različen 3.7 km/h
Temperatura: 16°C
Točka rosišča: 15°C
Vlažnost: 94%
Zračni tlak: 1020 hPa
Oblaki: nekaj oblakov
Vidljivost: več kot 10 km
Podrobnosti o oblakih: nekaj oblakov 6000 ft
LJLJ 152030Z VRB02KT 9999 FEW060 16/15 Q1020 NOSIG
LJCE - Cerklje ob Krki
Posodobljeno: 15-08-2018 22:30
delno oblačno  
delno oblačno  
   Veter: JZ 1.9 km/h
Veter: JZ 1.9 km/h
Temperatura: 19°C
Točka rosišča: 16°C
Vlažnost: 83%
Zračni tlak: 1018 hPa
Oblaki: delno oblačno
Vidljivost: več kot 10 km
Podrobnosti o oblakih: delno oblačno
LJCE 152030Z AUTO 22001KT 9999 NSC 19/16 Q1018
LJMB - Maribor
Posodobljeno: 15-08-2018 22:30
jasno  
jasno  
   Veter: Sever 5.6 km/h
Veter: Sever 5.6 km/h
Temperatura: 17°C
Točka rosišča: 15°C
Vlažnost: 88%
Zračni tlak: 1019 hPa
Oblaki: jasno
Vidljivost: več kot 10 km
Podrobnosti o oblakih: jasno
LJMB 152030Z AUTO 35003KT 9999 NCD 17/15 Q1019
LJPZ - Portorož
Posodobljeno: 15-08-2018 22:30
delno oblačno  
delno oblačno  
   Veter: VJV 7.4 km/h
Veter: VJV 7.4 km/h
Temperatura: 21°C
Točka rosišča: 16°C
Vlažnost: 73%
Zračni tlak: 1016 hPa
Oblaki: delno oblačno
Vidljivost: več kot 10 km
Podrobnosti o oblakih: delno oblačno
LJPZ 152030Z AUTO 11004KT 9999 NSC 21/16 Q1016
LDRI - Rijeka, Airport, Croatia
Posodobljeno: 15-08-2018 22:30
nekaj oblakov  
nekaj oblakov  
   Veter: različen 5.6 km/h
Veter: različen 5.6 km/h
Temperatura: 26°C
Točka rosišča: 13°C
Vlažnost: 45%
Zračni tlak: 1016 hPa
Oblaki: nekaj oblakov
Vidljivost: več kot 10 km
Podrobnosti o oblakih: nekaj oblakov 2000 ft
LDRI 152030Z VRB03KT 9999 FEW020 26/13 Q1016
LOWK - Klagenfurt, Airport, Avstia
Posodobljeno: 15-08-2018 22:20
nekaj oblakov  
nekaj oblakov  
   Veter: različen 1.9 km/h
Veter: različen 1.9 km/h
Temperatura: 19°C
Točka rosišča: 14°C
Vlažnost: 73%
Zračni tlak: 1020 hPa
Oblaki: nekaj oblakov
Vidljivost: več kot 10 km
Podrobnosti o oblakih: nekaj oblakov 7000 ft
LOWK 152020Z VRB01KT 9999 FEW070 19/14 Q1020 NOSIG

Script developed by  Saratoga-weather.org Adapted for the template by  Weerstation Leuven

Vremenski podatki so objavljeni na:

Weather Underground

Slovenska vremenska mreža

WeatherlinkIP

MapView

Geostik

Oprema, ki se uporablja:

Vremenska postaja
Davis VP2+ ventilirana

Vremenski program
WeatherLink

Vremenski server
Shuttle XS35V4

Ponudnik
Vremensko društvo ZEVS

Davis VP2+ ventilirana

WeatherLink

Shuttle XS35V4

Vremensko društvo ZEVS

Meteorološki podatki vremenske postaje Rakitna so neuradni, meteorološka postaja sama pa ni del državne mreže Agencije Republike Slovenije za okolje (ARSO),
je pa vključena v Vremensko društvo ZEVS. Prikazani podatki so izmerjeni točno, vendar so zgolj informativni in nimajo značaja uradnega podatka.

Podatke meri vremenska postaja "Davis VP2+ ventilirana" od 05.03.2011 dalje.

Opozarjamo, da ne prevzamemo odgovornosti za morebitno nastalo škodo, ki bi nastala zaradi odločitve, sprejete na osnovi teh podatkov!